sensor_id;sensor_type;location;lat;lon;timestamp;pressure;altitude;pressure_sealevel;temperature;humidity
59789;BME280;47353;51.614;5.530;2023-01-31T00:01:16;102392.44;;;1.77;100.00
59789;BME280;47353;51.614;5.530;2023-01-31T00:03:43;102391.94;;;1.73;100.00
59789;BME280;47353;51.614;5.530;2023-01-31T00:06:20;102394.84;;;1.71;100.00
59789;BME280;47353;51.614;5.530;2023-01-31T00:08:47;102393.66;;;1.74;100.00
59789;BME280;47353;51.614;5.530;2023-01-31T00:11:14;102385.94;;;1.77;100.00
59789;BME280;47353;51.614;5.530;2023-01-31T00:13:40;102400.44;;;1.78;100.00
59789;BME280;47353;51.614;5.530;2023-01-31T00:16:07;102402.50;;;1.76;100.00
59789;BME280;47353;51.614;5.530;2023-01-31T00:18:33;102411.72;;;1.75;100.00
59789;BME280;47353;51.614;5.530;2023-01-31T00:21:07;102413.22;;;1.77;100.00
59789;BME280;47353;51.614;5.530;2023-01-31T00:23:33;102408.13;;;1.74;100.00
59789;BME280;47353;51.614;5.530;2023-01-31T00:26:12;102416.13;;;1.76;100.00
59789;BME280;47353;51.614;5.530;2023-01-31T00:28:39;102419.03;;;1.74;100.00
59789;BME280;47353;51.614;5.530;2023-01-31T00:31:04;102418.75;;;1.69;100.00
59789;BME280;47353;51.614;5.530;2023-01-31T00:33:30;102419.78;;;1.68;100.00
59789;BME280;47353;51.614;5.530;2023-01-31T00:35:55;102421.53;;;1.61;100.00
59789;BME280;47353;51.614;5.530;2023-01-31T00:38:21;102420.84;;;1.59;100.00
59789;BME280;47353;51.614;5.530;2023-01-31T00:40:53;102419.16;;;1.58;100.00
59789;BME280;47353;51.614;5.530;2023-01-31T00:43:19;102414.19;;;1.62;100.00
59789;BME280;47353;51.614;5.530;2023-01-31T00:45:44;102399.16;;;1.66;100.00
59789;BME280;47353;51.614;5.530;2023-01-31T00:48:10;102393.22;;;1.62;100.00
59789;BME280;47353;51.614;5.530;2023-01-31T00:50:35;102397.81;;;1.62;100.00
59789;BME280;47353;51.614;5.530;2023-01-31T00:53:01;102404.31;;;1.61;100.00
59789;BME280;47353;51.614;5.530;2023-01-31T00:55:27;102397.34;;;1.58;100.00
59789;BME280;47353;51.614;5.530;2023-01-31T00:57:52;102405.72;;;1.57;100.00
59789;BME280;47353;51.614;5.530;2023-01-31T01:00:18;102403.16;;;1.55;100.00
59789;BME280;47353;51.614;5.530;2023-01-31T01:02:43;102395.44;;;1.59;100.00
59789;BME280;47353;51.614;5.530;2023-01-31T01:05:08;102394.78;;;1.57;100.00
59789;BME280;47353;51.614;5.530;2023-01-31T01:07:34;102403.16;;;1.55;100.00
59789;BME280;47353;51.614;5.530;2023-01-31T01:10:00;102395.34;;;1.52;100.00
59789;BME280;47353;51.614;5.530;2023-01-31T01:12:25;102387.69;;;1.48;100.00
59789;BME280;47353;51.614;5.530;2023-01-31T01:14:50;102384.44;;;1.52;100.00
59789;BME280;47353;51.614;5.530;2023-01-31T01:17:16;102373.88;;;1.49;100.00
59789;BME280;47353;51.614;5.530;2023-01-31T01:19:41;102373.38;;;1.46;100.00
59789;BME280;47353;51.614;5.530;2023-01-31T01:22:07;102357.22;;;1.36;100.00
59789;BME280;47353;51.614;5.530;2023-01-31T01:24:32;102363.00;;;1.41;100.00
59789;BME280;47353;51.614;5.530;2023-01-31T01:26:57;102360.47;;;1.40;100.00
59789;BME280;47353;51.614;5.530;2023-01-31T01:29:24;102343.91;;;1.41;100.00
59789;BME280;47353;51.614;5.530;2023-01-31T01:31:49;102357.19;;;1.44;100.00
59789;BME280;47353;51.614;5.530;2023-01-31T01:34:15;102352.03;;;1.49;100.00
59789;BME280;47353;51.614;5.530;2023-01-31T01:36:41;102355.56;;;1.58;100.00
59789;BME280;47353;51.614;5.530;2023-01-31T01:39:09;102358.59;;;1.63;100.00
59789;BME280;47353;51.614;5.530;2023-01-31T01:41:36;102348.69;;;1.62;100.00
59789;BME280;47353;51.614;5.530;2023-01-31T01:44:39;102349.91;;;1.59;100.00
59789;BME280;47353;51.614;5.530;2023-01-31T01:46:49;102351.59;;;1.60;100.00
59789;BME280;47353;51.614;5.530;2023-01-31T01:51:54;102350.03;;;1.66;100.00
59789;BME280;47353;51.614;5.530;2023-01-31T01:54:27;102349.69;;;1.69;100.00
59789;BME280;47353;51.614;5.530;2023-01-31T01:56:58;102347.13;;;1.67;100.00
59789;BME280;47353;51.614;5.530;2023-01-31T01:59:30;102337.59;;;1.63;100.00
59789;BME280;47353;51.614;5.530;2023-01-31T02:01:56;102341.84;;;1.66;100.00
59789;BME280;47353;51.614;5.530;2023-01-31T02:04:25;102334.03;;;1.63;100.00
59789;BME280;47353;51.614;5.530;2023-01-31T02:06:52;102353.31;;;1.61;100.00
59789;BME280;47353;51.614;5.530;2023-01-31T02:09:24;102333.72;;;1.58;100.00
59789;BME280;47353;51.614;5.530;2023-01-31T02:11:52;102355.50;;;1.66;100.00
59789;BME280;47353;51.614;5.530;2023-01-31T02:14:17;102352.94;;;1.64;100.00
59789;BME280;47353;51.614;5.530;2023-01-31T02:16:43;102356.88;;;1.62;100.00
59789;BME280;47353;51.614;5.530;2023-01-31T02:19:44;102355.50;;;1.66;100.00
59789;BME280;47353;51.614;5.530;2023-01-31T02:22:06;102364.22;;;1.61;100.00
59789;BME280;47353;51.614;5.530;2023-01-31T02:36:07;102368.03;;;1.75;100.00
59789;BME280;47353;51.614;5.530;2023-01-31T02:41:31;102368.66;;;1.85;100.00
59789;BME280;47353;51.614;5.530;2023-01-31T02:44:35;102349.72;;;1.84;100.00
59789;BME280;47353;51.614;5.530;2023-01-31T02:48:02;102360.69;;;1.98;100.00
59789;BME280;47353;51.614;5.530;2023-01-31T02:58:19;102357.03;;;2.06;100.00
59789;BME280;47353;51.614;5.530;2023-01-31T03:00:46;102350.72;;;2.05;100.00
59789;BME280;47353;51.614;5.530;2023-01-31T03:03:18;102352.25;;;2.08;100.00
59789;BME280;47353;51.614;5.530;2023-01-31T03:08:41;102347.28;;;2.11;100.00
59789;BME280;47353;51.614;5.530;2023-01-31T03:11:08;102337.72;;;2.07;100.00
59789;BME280;47353;51.614;5.530;2023-01-31T03:16:07;102337.16;;;2.12;100.00
59789;BME280;47353;51.614;5.530;2023-01-31T03:19:07;102343.69;;;2.11;100.00
59789;BME280;47353;51.614;5.530;2023-01-31T03:22:05;102339.72;;;2.13;100.00
59789;BME280;47353;51.614;5.530;2023-01-31T03:24:32;102339.06;;;2.11;100.00
59789;BME280;47353;51.614;5.530;2023-01-31T03:26:59;102349.31;;;2.09;100.00
59789;BME280;47353;51.614;5.530;2023-01-31T03:29:28;102334.63;;;2.10;100.00
59789;BME280;47353;51.614;5.530;2023-01-31T03:31:59;102323.78;;;2.02;100.00
59789;BME280;47353;51.614;5.530;2023-01-31T03:34:29;102321.53;;;2.06;100.00
59789;BME280;47353;51.614;5.530;2023-01-31T03:37:05;102330.03;;;2.11;100.00
59789;BME280;47353;51.614;5.530;2023-01-31T03:42:12;102329.84;;;2.12;100.00
59789;BME280;47353;51.614;5.530;2023-01-31T03:44:45;102325.03;;;2.14;100.00
59789;BME280;47353;51.614;5.530;2023-01-31T03:47:20;102318.53;;;2.15;100.00
59789;BME280;47353;51.614;5.530;2023-01-31T03:49:48;102301.47;;;2.13;100.00
59789;BME280;47353;51.614;5.530;2023-01-31T03:52:19;102315.72;;;2.23;100.00
59789;BME280;47353;51.614;5.530;2023-01-31T03:54:54;102299.91;;;2.19;100.00
59789;BME280;47353;51.614;5.530;2023-01-31T03:57:30;102305.44;;;2.25;100.00
59789;BME280;47353;51.614;5.530;2023-01-31T03:59:59;102309.50;;;2.29;100.00
59789;BME280;47353;51.614;5.530;2023-01-31T04:02:33;102304.06;;;2.29;100.00
59789;BME280;47353;51.614;5.530;2023-01-31T04:05:10;102312.53;;;2.34;100.00
59789;BME280;47353;51.614;5.530;2023-01-31T04:07:37;102292.44;;;2.27;100.00
59789;BME280;47353;51.614;5.530;2023-01-31T04:10:10;102298.41;;;2.31;100.00
59789;BME280;47353;51.614;5.530;2023-01-31T04:12:37;102308.09;;;2.33;100.00
59789;BME280;47353;51.614;5.530;2023-01-31T04:15:04;102298.59;;;2.29;100.00
59789;BME280;47353;51.614;5.530;2023-01-31T04:17:29;102305.28;;;2.27;100.00
59789;BME280;47353;51.614;5.530;2023-01-31T04:19:55;102308.84;;;2.27;100.00
59789;BME280;47353;51.614;5.530;2023-01-31T04:22:20;102293.50;;;2.26;100.00
59789;BME280;47353;51.614;5.530;2023-01-31T04:24:46;102299.34;;;2.23;100.00
59789;BME280;47353;51.614;5.530;2023-01-31T04:27:11;102299.97;;;2.25;100.00
59789;BME280;47353;51.614;5.530;2023-01-31T04:29:37;102292.84;;;2.24;100.00
59789;BME280;47353;51.614;5.530;2023-01-31T04:32:02;102286.31;;;2.25;100.00
59789;BME280;47353;51.614;5.530;2023-01-31T04:34:27;102295.94;;;2.21;100.00
59789;BME280;47353;51.614;5.530;2023-01-31T04:36:53;102291.25;;;2.30;100.00
59789;BME280;47353;51.614;5.530;2023-01-31T04:39:18;102305.09;;;2.28;100.00
59789;BME280;47353;51.614;5.530;2023-01-31T04:41:44;102299.63;;;2.28;100.00
59789;BME280;47353;51.614;5.530;2023-01-31T04:44:09;102289.06;;;2.25;100.00
59789;BME280;47353;51.614;5.530;2023-01-31T04:46:36;102290.09;;;2.24;100.00
59789;BME280;47353;51.614;5.530;2023-01-31T04:49:02;102288.31;;;2.17;100.00
59789;BME280;47353;51.614;5.530;2023-01-31T04:51:27;102274.16;;;2.13;100.00
59789;BME280;47353;51.614;5.530;2023-01-31T04:53:53;102276.53;;;2.16;100.00
59789;BME280;47353;51.614;5.530;2023-01-31T04:56:18;102265.16;;;2.13;100.00
59789;BME280;47353;51.614;5.530;2023-01-31T04:58:43;102262.59;;;2.11;100.00
59789;BME280;47353;51.614;5.530;2023-01-31T05:01:09;102259.88;;;2.11;100.00
59789;BME280;47353;51.614;5.530;2023-01-31T05:03:35;102257.53;;;2.08;100.00
59789;BME280;47353;51.614;5.530;2023-01-31T05:06:00;102262.97;;;2.08;100.00
59789;BME280;47353;51.614;5.530;2023-01-31T05:08:26;102252.59;;;2.04;100.00
59789;BME280;47353;51.614;5.530;2023-01-31T05:10:58;102253.44;;;2.04;100.00
59789;BME280;47353;51.614;5.530;2023-01-31T05:13:24;102256.09;;;2.12;100.00
59789;BME280;47353;51.614;5.530;2023-01-31T05:15:50;102256.38;;;2.17;100.00
59789;BME280;47353;51.614;5.530;2023-01-31T05:18:15;102259.38;;;2.22;100.00
59789;BME280;47353;51.614;5.530;2023-01-31T05:20:40;102254.03;;;2.29;100.00
59789;BME280;47353;51.614;5.530;2023-01-31T05:23:08;102252.44;;;2.34;100.00
59789;BME280;47353;51.614;5.530;2023-01-31T05:25:35;102252.88;;;2.38;100.00
59789;BME280;47353;51.614;5.530;2023-01-31T05:28:01;102245.72;;;2.37;100.00
59789;BME280;47353;51.614;5.530;2023-01-31T05:30:27;102240.56;;;2.42;100.00
59789;BME280;47353;51.614;5.530;2023-01-31T05:32:52;102253.06;;;2.36;100.00
59789;BME280;47353;51.614;5.530;2023-01-31T05:35:18;102235.28;;;2.40;100.00
59789;BME280;47353;51.614;5.530;2023-01-31T05:37:43;102237.91;;;2.48;100.00
59789;BME280;47353;51.614;5.530;2023-01-31T05:40:15;102229.25;;;2.45;100.00
59789;BME280;47353;51.614;5.530;2023-01-31T05:42:40;102227.91;;;2.55;100.00
59789;BME280;47353;51.614;5.530;2023-01-31T05:45:07;102224.88;;;2.50;100.00
59789;BME280;47353;51.614;5.530;2023-01-31T05:47:33;102233.00;;;2.58;100.00
59789;BME280;47353;51.614;5.530;2023-01-31T05:49:58;102222.44;;;2.55;100.00
59789;BME280;47353;51.614;5.530;2023-01-31T05:52:23;102219.31;;;2.58;100.00
59789;BME280;47353;51.614;5.530;2023-01-31T05:54:49;102228.00;;;2.62;100.00
59789;BME280;47353;51.614;5.530;2023-01-31T05:57:14;102228.00;;;2.62;100.00
59789;BME280;47353;51.614;5.530;2023-01-31T05:59:40;102215.53;;;2.59;100.00
59789;BME280;47353;51.614;5.530;2023-01-31T06:02:05;102216.22;;;2.61;100.00
59789;BME280;47353;51.614;5.530;2023-01-31T06:04:32;102226.28;;;2.61;100.00
59789;BME280;47353;51.614;5.530;2023-01-31T06:06:58;102237.88;;;2.63;100.00
59789;BME280;47353;51.614;5.530;2023-01-31T06:09:23;102243.44;;;2.69;100.00
59789;BME280;47353;51.614;5.530;2023-01-31T06:11:48;102231.16;;;2.65;100.00
59789;BME280;47353;51.614;5.530;2023-01-31T06:14:14;102228.63;;;2.64;100.00
59789;BME280;47353;51.614;5.530;2023-01-31T06:16:39;102220.44;;;2.64;100.00
59789;BME280;47353;51.614;5.530;2023-01-31T06:19:05;102218.84;;;2.69;100.00
59789;BME280;47353;51.614;5.530;2023-01-31T06:21:30;102228.72;;;2.70;100.00
59789;BME280;47353;51.614;5.530;2023-01-31T06:23:55;102209.31;;;2.65;100.00
59789;BME280;47353;51.614;5.530;2023-01-31T06:26:21;102219.56;;;2.78;100.00
59789;BME280;47353;51.614;5.530;2023-01-31T06:28:47;102226.84;;;2.71;100.00
59789;BME280;47353;51.614;5.530;2023-01-31T06:31:12;102217.19;;;2.75;100.00
59789;BME280;47353;51.614;5.530;2023-01-31T06:33:38;102226.47;;;2.74;100.00
59789;BME280;47353;51.614;5.530;2023-01-31T06:36:04;102220.13;;;2.73;100.00
59789;BME280;47353;51.614;5.530;2023-01-31T06:38:29;102212.13;;;2.72;100.00
59789;BME280;47353;51.614;5.530;2023-01-31T06:40:55;102212.88;;;2.80;100.00
59789;BME280;47353;51.614;5.530;2023-01-31T06:43:21;102197.03;;;2.76;100.00
59789;BME280;47353;51.614;5.530;2023-01-31T06:45:47;102192.22;;;2.78;100.00
59789;BME280;47353;51.614;5.530;2023-01-31T06:48:13;102183.63;;;2.81;100.00
59789;BME280;47353;51.614;5.530;2023-01-31T06:50:39;102184.66;;;2.80;100.00
59789;BME280;47353;51.614;5.530;2023-01-31T06:53:04;102186.81;;;2.84;100.00
59789;BME280;47353;51.614;5.530;2023-01-31T06:55:30;102193.63;;;2.88;100.00
59789;BME280;47353;51.614;5.530;2023-01-31T06:57:55;102198.88;;;2.90;100.00
59789;BME280;47353;51.614;5.530;2023-01-31T07:00:21;102209.16;;;2.88;100.00
59789;BME280;47353;51.614;5.530;2023-01-31T07:02:49;102200.09;;;2.87;100.00
59789;BME280;47353;51.614;5.530;2023-01-31T07:05:14;102198.50;;;2.93;100.00
59789;BME280;47353;51.614;5.530;2023-01-31T07:07:40;102190.09;;;2.94;100.00
59789;BME280;47353;51.614;5.530;2023-01-31T07:10:06;102180.91;;;3.02;100.00
59789;BME280;47353;51.614;5.530;2023-01-31T07:12:32;102190.53;;;2.98;100.00
59789;BME280;47353;51.614;5.530;2023-01-31T07:14:57;102180.84;;;2.95;100.00
59789;BME280;47353;51.614;5.530;2023-01-31T07:17:22;102171.41;;;2.98;100.00
59789;BME280;47353;51.614;5.530;2023-01-31T07:19:48;102186.31;;;2.95;100.00
59789;BME280;47353;51.614;5.530;2023-01-31T07:22:13;102176.06;;;3.04;100.00
59789;BME280;47353;51.614;5.530;2023-01-31T07:24:39;102180.91;;;3.02;100.00
59789;BME280;47353;51.614;5.530;2023-01-31T07:27:04;102168.53;;;3.06;100.00
59789;BME280;47353;51.614;5.530;2023-01-31T07:29:29;102153.06;;;3.13;100.00
59789;BME280;47353;51.614;5.530;2023-01-31T07:31:55;102171.63;;;3.24;100.00
59789;BME280;47353;51.614;5.530;2023-01-31T07:34:20;102159.28;;;3.28;100.00
59789;BME280;47353;51.614;5.530;2023-01-31T07:36:50;102159.97;;;3.36;100.00
59789;BME280;47353;51.614;5.530;2023-01-31T07:39:16;102175.16;;;3.39;100.00
59789;BME280;47353;51.614;5.530;2023-01-31T07:41:42;102163.69;;;3.50;100.00
59789;BME280;47353;51.614;5.530;2023-01-31T07:44:08;102174.91;;;3.62;100.00
59789;BME280;47353;51.614;5.530;2023-01-31T07:46:37;102169.50;;;3.68;100.00
59789;BME280;47353;51.614;5.530;2023-01-31T07:49:02;102175.03;;;3.75;100.00
59789;BME280;47353;51.614;5.530;2023-01-31T07:51:27;102153.13;;;3.75;100.00
59789;BME280;47353;51.614;5.530;2023-01-31T07:53:53;102151.59;;;3.72;100.00
59789;BME280;47353;51.614;5.530;2023-01-31T07:56:20;102160.69;;;3.73;100.00
59789;BME280;47353;51.614;5.530;2023-01-31T07:58:47;102152.47;;;3.73;100.00
59789;BME280;47353;51.614;5.530;2023-01-31T08:01:23;102167.22;;;3.78;100.00
59789;BME280;47353;51.614;5.530;2023-01-31T08:04:09;102145.31;;;3.78;100.00
59789;BME280;47353;51.614;5.530;2023-01-31T08:06:35;102139.69;;;3.86;100.00
59789;BME280;47353;51.614;5.530;2023-01-31T08:09:01;102147.91;;;3.86;100.00
59789;BME280;47353;51.614;5.530;2023-01-31T08:11:27;102150.00;;;3.84;100.00
59789;BME280;47353;51.614;5.530;2023-01-31T08:13:52;102143.09;;;3.88;100.00
59789;BME280;47353;51.614;5.530;2023-01-31T08:16:18;102140.97;;;3.90;100.00
59789;BME280;47353;51.614;5.530;2023-01-31T08:18:45;102141.81;;;3.91;100.00
59789;BME280;47353;51.614;5.530;2023-01-31T08:21:12;102137.00;;;3.93;100.00
59789;BME280;47353;51.614;5.530;2023-01-31T08:23:37;102138.94;;;3.99;100.00
59789;BME280;47353;51.614;5.530;2023-01-31T08:26:13;102142.13;;;4.02;100.00
59789;BME280;47353;51.614;5.530;2023-01-31T08:28:41;102132.81;;;3.97;100.00
59789;BME280;47353;51.614;5.530;2023-01-31T08:31:15;102122.94;;;4.02;100.00
59789;BME280;47353;51.614;5.530;2023-01-31T08:33:41;102122.75;;;4.04;100.00
59789;BME280;47353;51.614;5.530;2023-01-31T08:39:03;102118.72;;;4.06;100.00
59789;BME280;47353;51.614;5.530;2023-01-31T08:41:30;102130.59;;;4.13;100.00
59789;BME280;47353;51.614;5.530;2023-01-31T08:43:56;102125.97;;;4.20;100.00
59789;BME280;47353;51.614;5.530;2023-01-31T08:46:26;102120.28;;;4.22;100.00
59789;BME280;47353;51.614;5.530;2023-01-31T08:48:53;102123.47;;;4.25;100.00
59789;BME280;47353;51.614;5.530;2023-01-31T08:51:19;102085.28;;;4.17;100.00
59789;BME280;47353;51.614;5.530;2023-01-31T08:53:44;102111.25;;;4.28;100.00
59789;BME280;47353;51.614;5.530;2023-01-31T08:56:11;102091.84;;;4.29;100.00
59789;BME280;47353;51.614;5.530;2023-01-31T08:58:40;102089.78;;;4.44;100.00
59789;BME280;47353;51.614;5.530;2023-01-31T09:01:08;102093.59;;;4.43;100.00
59789;BME280;47353;51.614;5.530;2023-01-31T09:03:35;102086.88;;;4.52;100.00
59789;BME280;47353;51.614;5.530;2023-01-31T09:06:02;102098.06;;;4.57;100.00
59789;BME280;47353;51.614;5.530;2023-01-31T09:08:28;102092.16;;;4.60;100.00
59789;BME280;47353;51.614;5.530;2023-01-31T09:10:54;102112.81;;;4.63;100.00
59789;BME280;47353;51.614;5.530;2023-01-31T09:13:20;102091.72;;;4.57;100.00
59789;BME280;47353;51.614;5.530;2023-01-31T09:15:46;102090.47;;;4.59;100.00
59789;BME280;47353;51.614;5.530;2023-01-31T09:18:12;102103.13;;;4.60;100.00
59789;BME280;47353;51.614;5.530;2023-01-31T09:20:37;102092.81;;;4.62;100.00
59789;BME280;47353;51.614;5.530;2023-01-31T09:23:02;102060.97;;;4.74;100.00
59789;BME280;47353;51.614;5.530;2023-01-31T09:25:28;102051.69;;;4.82;100.00
59789;BME280;47353;51.614;5.530;2023-01-31T09:27:54;102065.19;;;5.09;100.00
59789;BME280;47353;51.614;5.530;2023-01-31T09:30:19;102079.53;;;5.38;98.99
59789;BME280;47353;51.614;5.530;2023-01-31T09:32:45;102083.97;;;5.52;97.35
59789;BME280;47353;51.614;5.530;2023-01-31T09:35:11;102087.34;;;5.47;97.17
59789;BME280;47353;51.614;5.530;2023-01-31T09:37:37;102077.41;;;5.53;97.56
59789;BME280;47353;51.614;5.530;2023-01-31T09:40:04;102098.94;;;5.56;97.25
59789;BME280;47353;51.614;5.530;2023-01-31T09:42:35;102063.03;;;5.57;96.85
59789;BME280;47353;51.614;5.530;2023-01-31T09:45:14;102072.31;;;5.63;96.48
59789;BME280;47353;51.614;5.530;2023-01-31T09:47:46;102067.22;;;5.66;96.28
59789;BME280;47353;51.614;5.530;2023-01-31T09:50:33;102064.88;;;5.76;95.81
59789;BME280;47353;51.614;5.530;2023-01-31T09:52:59;102079.47;;;5.83;95.41
59789;BME280;47353;51.614;5.530;2023-01-31T09:58:33;102053.00;;;6.02;95.46
59789;BME280;47353;51.614;5.530;2023-01-31T10:03:56;102061.00;;;6.03;95.02
59789;BME280;47353;51.614;5.530;2023-01-31T10:06:48;102078.00;;;5.87;95.09
59789;BME280;47353;51.614;5.530;2023-01-31T10:09:16;102063.59;;;5.79;95.18
59789;BME280;47353;51.614;5.530;2023-01-31T10:11:50;102072.72;;;5.66;96.19
59789;BME280;47353;51.614;5.530;2023-01-31T10:14:34;102063.84;;;5.71;96.82
59789;BME280;47353;51.614;5.530;2023-01-31T10:17:25;102054.72;;;5.90;96.59
59789;BME280;47353;51.614;5.530;2023-01-31T10:22:38;102060.03;;;5.85;96.92
59789;BME280;47353;51.614;5.530;2023-01-31T10:25:30;102055.59;;;5.84;97.24
59789;BME280;47353;51.614;5.530;2023-01-31T10:28:02;102074.00;;;5.77;97.47
59789;BME280;47353;51.614;5.530;2023-01-31T10:31:06;102067.44;;;5.71;98.65
59789;BME280;47353;51.614;5.530;2023-01-31T10:36:28;102070.81;;;5.73;99.46
59789;BME280;47353;51.614;5.530;2023-01-31T10:39:01;102075.03;;;5.76;99.61
59789;BME280;47353;51.614;5.530;2023-01-31T10:42:26;102053.06;;;5.82;99.48
59789;BME280;47353;51.614;5.530;2023-01-31T10:47:30;102058.34;;;5.90;99.45
59789;BME280;47353;51.614;5.530;2023-01-31T10:49:56;102081.75;;;5.99;99.30
59789;BME280;47353;51.614;5.530;2023-01-31T10:58:13;102041.91;;;6.21;99.47
59789;BME280;47353;51.614;5.530;2023-01-31T11:00:39;102043.09;;;6.38;98.25
59789;BME280;47353;51.614;5.530;2023-01-31T11:03:05;102040.06;;;6.46;97.92
59789;BME280;47353;51.614;5.530;2023-01-31T11:05:31;102042.38;;;6.49;97.16
59789;BME280;47353;51.614;5.530;2023-01-31T11:08:09;102022.06;;;6.50;96.95
59789;BME280;47353;51.614;5.530;2023-01-31T11:10:53;102037.16;;;6.41;97.36
59789;BME280;47353;51.614;5.530;2023-01-31T11:13:19;102037.59;;;6.38;96.88
59789;BME280;47353;51.614;5.530;2023-01-31T11:15:45;102006.97;;;6.28;97.28
59789;BME280;47353;51.614;5.530;2023-01-31T11:18:36;102026.63;;;6.32;98.06
59789;BME280;47353;51.614;5.530;2023-01-31T11:21:02;102004.22;;;6.28;97.94
59789;BME280;47353;51.614;5.530;2023-01-31T11:23:31;102007.81;;;6.29;98.08
59789;BME280;47353;51.614;5.530;2023-01-31T11:25:58;102001.66;;;6.33;98.41
59789;BME280;47353;51.614;5.530;2023-01-31T11:28:38;101991.66;;;6.39;98.05
59789;BME280;47353;51.614;5.530;2023-01-31T11:31:06;102016.22;;;6.34;98.39
59789;BME280;47353;51.614;5.530;2023-01-31T11:36:09;102011.81;;;6.33;98.45
59789;BME280;47353;51.614;5.530;2023-01-31T11:38:35;101991.94;;;6.31;98.42
59789;BME280;47353;51.614;5.530;2023-01-31T11:41:00;101990.69;;;6.27;98.88
59789;BME280;47353;51.614;5.530;2023-01-31T11:43:29;101998.28;;;6.31;99.67
59789;BME280;47353;51.614;5.530;2023-01-31T11:46:02;102010.72;;;6.34;98.92
59789;BME280;47353;51.614;5.530;2023-01-31T11:48:42;102001.44;;;6.35;98.85
59789;BME280;47353;51.614;5.530;2023-01-31T11:51:09;101987.50;;;6.30;99.27
59789;BME280;47353;51.614;5.530;2023-01-31T11:53:49;101993.00;;;6.30;99.10
59789;BME280;47353;51.614;5.530;2023-01-31T11:56:24;101990.25;;;6.30;99.51
59789;BME280;47353;51.614;5.530;2023-01-31T11:58:54;101990.69;;;6.27;100.00
59789;BME280;47353;51.614;5.530;2023-01-31T12:01:23;101980.94;;;6.31;99.98
59789;BME280;47353;51.614;5.530;2023-01-31T12:03:59;101989.03;;;6.26;100.00
59789;BME280;47353;51.614;5.530;2023-01-31T12:06:31;101991.13;;;6.30;100.00
59789;BME280;47353;51.614;5.530;2023-01-31T12:08:59;101983.47;;;6.32;100.00
59789;BME280;47353;51.614;5.530;2023-01-31T12:11:33;101984.75;;;6.30;100.00
59789;BME280;47353;51.614;5.530;2023-01-31T12:14:19;101980.94;;;6.31;100.00
59789;BME280;47353;51.614;5.530;2023-01-31T12:16:46;101987.28;;;6.31;100.00
59789;BME280;47353;51.614;5.530;2023-01-31T12:33:00;101974.66;;;5.80;100.00
59789;BME280;47353;51.614;5.530;2023-01-31T12:44:09;101975.75;;;5.66;100.00
59789;BME280;47353;51.614;5.530;2023-01-31T12:52:35;101976.81;;;5.65;100.00
59789;BME280;47353;51.614;5.530;2023-01-31T12:58:09;101961.38;;;5.70;100.00
59789;BME280;47353;51.614;5.530;2023-01-31T13:01:04;101967.47;;;5.72;100.00
59789;BME280;47353;51.614;5.530;2023-01-31T13:06:21;101957.56;;;5.71;100.00
59789;BME280;47353;51.614;5.530;2023-01-31T13:08:55;101955.22;;;5.75;100.00
59789;BME280;47353;51.614;5.530;2023-01-31T13:11:28;101958.59;;;5.77;100.00
59789;BME280;47353;51.614;5.530;2023-01-31T13:14:00;101958.59;;;5.77;100.00
59789;BME280;47353;51.614;5.530;2023-01-31T13:16:34;101955.88;;;5.77;100.00
59789;BME280;47353;51.614;5.530;2023-01-31T13:19:17;101946.78;;;5.83;100.00
59789;BME280;47353;51.614;5.530;2023-01-31T13:21:45;101950.75;;;5.80;100.00
59789;BME280;47353;51.614;5.530;2023-01-31T13:24:19;101959.22;;;5.85;100.00
59789;BME280;47353;51.614;5.530;2023-01-31T13:27:08;101968.31;;;5.86;100.00
59789;BME280;47353;51.614;5.530;2023-01-31T13:29:42;101969.34;;;5.91;100.00
59789;BME280;47353;51.614;5.530;2023-01-31T13:34:43;101962.75;;;5.92;100.00
59789;BME280;47353;51.614;5.530;2023-01-31T13:37:13;101949.66;;;5.94;100.00
59789;BME280;47353;51.614;5.530;2023-01-31T13:42:26;101943.47;;;6.05;100.00
59789;BME280;47353;51.614;5.530;2023-01-31T13:44:53;101946.41;;;6.10;100.00
59789;BME280;47353;51.614;5.530;2023-01-31T13:47:26;101940.06;;;6.10;100.00
59789;BME280;47353;51.614;5.530;2023-01-31T13:50:00;101941.91;;;6.16;100.00
59789;BME280;47353;51.614;5.530;2023-01-31T13:52:32;101934.94;;;6.20;100.00
59789;BME280;47353;51.614;5.530;2023-01-31T13:55:01;101943.75;;;6.28;100.00
59789;BME280;47353;51.614;5.530;2023-01-31T13:57:31;101938.88;;;6.30;100.00
59789;BME280;47353;51.614;5.530;2023-01-31T14:13:45;101937.63;;;6.51;100.00
59789;BME280;47353;51.614;5.530;2023-01-31T14:18:56;101945.66;;;6.52;100.00
59789;BME280;47353;51.614;5.530;2023-01-31T14:24:00;101967.00;;;6.57;100.00
59789;BME280;47353;51.614;5.530;2023-01-31T14:29:08;101951.84;;;6.48;100.00
59789;BME280;47353;51.614;5.530;2023-01-31T14:31:34;101969.31;;;6.60;100.00
59789;BME280;47353;51.614;5.530;2023-01-31T14:34:01;101978.00;;;6.57;100.00
59789;BME280;47353;51.614;5.530;2023-01-31T14:36:42;101971.63;;;6.63;100.00
59789;BME280;47353;51.614;5.530;2023-01-31T14:39:21;101984.13;;;6.59;100.00
59789;BME280;47353;51.614;5.530;2023-01-31T14:44:47;101995.75;;;6.61;100.00
59789;BME280;47353;51.614;5.530;2023-01-31T14:47:52;101997.66;;;6.60;100.00
59789;BME280;47353;51.614;5.530;2023-01-31T14:50:38;101996.16;;;6.64;100.00
59789;BME280;47353;51.614;5.530;2023-01-31T14:58:33;102017.19;;;6.77;100.00
59789;BME280;47353;51.614;5.530;2023-01-31T15:01:03;101999.81;;;6.83;100.00
59789;BME280;47353;51.614;5.530;2023-01-31T15:03:34;101990.72;;;6.82;100.00
59789;BME280;47353;51.614;5.530;2023-01-31T15:06:16;101991.78;;;6.82;100.00
59789;BME280;47353;51.614;5.530;2023-01-31T15:08:49;102002.94;;;6.87;100.00
59789;BME280;47353;51.614;5.530;2023-01-31T15:13:54;102017.97;;;6.91;100.00
59789;BME280;47353;51.614;5.530;2023-01-31T15:16:21;102015.59;;;6.94;100.00